createdAt,value
2019-06-20T00:00:46.994Z,0.00
2019-06-20T00:01:46.984Z,0.00
2019-06-20T00:02:46.977Z,0.00
2019-06-20T00:03:46.965Z,0.00
2019-06-20T00:04:46.978Z,0.00
2019-06-20T00:05:46.943Z,0.00
2019-06-20T00:06:46.929Z,0.00
2019-06-20T00:07:46.928Z,0.00
2019-06-20T00:08:46.908Z,0.00
2019-06-20T00:09:46.992Z,0.00
2019-06-20T00:10:46.886Z,0.00
2019-06-20T00:11:46.877Z,0.00
2019-06-20T00:12:59.493Z,0.00
2019-06-20T00:13:47.852Z,0.00
2019-06-20T00:14:46.847Z,0.00
2019-06-20T00:15:46.881Z,0.00
2019-06-20T00:16:46.821Z,0.00
2019-06-20T00:17:46.810Z,0.00
2019-06-20T00:18:46.806Z,0.00
2019-06-20T00:19:46.791Z,0.00
2019-06-20T00:20:46.816Z,0.00
2019-06-20T00:21:46.767Z,0.00
2019-06-20T00:22:46.760Z,0.00
2019-06-20T00:23:46.744Z,0.00
2019-06-20T00:24:46.740Z,0.00
2019-06-20T00:25:46.724Z,0.00
2019-06-20T00:26:46.745Z,0.00
2019-06-20T00:27:46.705Z,0.00
2019-06-20T00:28:46.693Z,0.00
2019-06-20T00:29:46.677Z,0.00
2019-06-20T00:30:46.673Z,0.00
2019-06-20T00:31:46.655Z,0.00
2019-06-20T00:32:46.682Z,0.00
2019-06-20T00:33:46.634Z,0.00
2019-06-20T00:34:46.625Z,0.00
2019-06-20T00:35:46.615Z,0.00
2019-06-20T00:36:46.612Z,0.00
2019-06-20T00:37:46.594Z,0.00
2019-06-20T00:38:46.605Z,0.00
2019-06-20T00:39:46.571Z,0.00
2019-06-20T00:40:46.562Z,0.00
2019-06-20T00:41:46.555Z,0.00
2019-06-20T00:42:46.540Z,0.00
2019-06-20T00:43:46.565Z,0.00
2019-06-20T00:44:46.518Z,0.00
2019-06-20T00:45:46.505Z,0.00
2019-06-20T00:46:46.495Z,0.00
2019-06-20T00:47:46.486Z,0.00
2019-06-20T00:48:46.473Z,0.00
2019-06-20T00:49:46.486Z,0.00
2019-06-20T00:50:46.455Z,0.00
2019-06-20T00:51:46.440Z,0.00
2019-06-20T00:52:46.433Z,0.00
2019-06-20T00:53:46.420Z,0.00
2019-06-20T00:54:46.443Z,0.00
2019-06-20T00:55:46.399Z,0.00
2019-06-20T00:56:46.385Z,0.00
2019-06-20T00:57:46.379Z,0.00
2019-06-20T00:58:46.365Z,0.00
2019-06-20T00:59:46.358Z,0.00
2019-06-20T01:00:46.370Z,0.00
2019-06-20T01:01:46.337Z,0.00
2019-06-20T01:02:46.322Z,0.00
2019-06-20T01:03:46.310Z,0.00
2019-06-20T01:04:46.309Z,0.00
2019-06-20T01:05:46.326Z,0.00
2019-06-20T01:06:46.277Z,0.00
2019-06-20T01:07:46.270Z,0.00
2019-06-20T01:08:46.256Z,0.00
2019-06-20T01:09:46.246Z,0.00
2019-06-20T01:10:46.237Z,0.00
2019-06-20T01:11:46.247Z,0.00
2019-06-20T01:12:46.213Z,0.00
2019-06-20T01:13:46.202Z,0.00
2019-06-20T01:14:46.193Z,0.00
2019-06-20T01:15:46.181Z,0.00
2019-06-20T01:16:46.204Z,0.00
2019-06-20T01:17:46.158Z,0.00
2019-06-20T01:18:46.148Z,0.00
2019-06-20T01:19:46.136Z,0.00
2019-06-20T01:20:46.124Z,0.00
2019-06-20T01:21:46.114Z,0.00
2019-06-20T01:22:46.139Z,0.00
2019-06-20T01:23:46.090Z,0.00
2019-06-20T01:24:46.080Z,0.00
2019-06-20T01:25:46.069Z,0.00
2019-06-20T01:26:46.059Z,0.00
2019-06-20T01:27:46.046Z,0.00
2019-06-20T01:28:46.062Z,0.00
2019-06-20T01:29:46.027Z,0.00
2019-06-20T01:30:46.017Z,0.00
2019-06-20T01:31:46.011Z,0.00
2019-06-20T01:32:45.999Z,0.00
2019-06-20T01:33:46.007Z,0.00
2019-06-20T01:34:45.970Z,0.00
2019-06-20T01:35:45.963Z,0.00
2019-06-20T01:36:45.957Z,0.00
2019-06-20T01:37:45.939Z,0.00
2019-06-20T01:38:45.965Z,0.00
2019-06-20T01:39:45.919Z,0.00
2019-06-20T01:40:45.906Z,0.00
2019-06-20T01:41:45.898Z,0.00
2019-06-20T01:42:45.893Z,0.00
2019-06-20T01:43:50.414Z,0.00
2019-06-20T01:44:46.896Z,0.00
2019-06-20T01:45:45.854Z,0.00
2019-06-20T01:46:45.841Z,0.00
2019-06-20T01:47:45.828Z,0.00
2019-06-20T01:48:45.819Z,0.00
2019-06-20T01:49:45.807Z,0.00
2019-06-20T01:50:45.832Z,0.00
2019-06-20T01:51:45.785Z,0.00
2019-06-20T01:52:45.779Z,0.00
2019-06-20T01:53:45.780Z,0.00
2019-06-20T01:54:45.753Z,0.00
2019-06-20T01:55:45.742Z,0.00
2019-06-20T01:56:45.755Z,0.00
2019-06-20T01:57:45.721Z,0.00
2019-06-20T01:58:45.708Z,0.00
2019-06-20T01:59:45.702Z,0.00
2019-06-20T02:00:45.720Z,0.00
2019-06-20T02:01:45.729Z,0.00
2019-06-20T02:02:45.665Z,0.00
2019-06-20T02:03:45.658Z,0.00
2019-06-20T02:04:45.652Z,0.00
2019-06-20T02:05:45.635Z,0.00
2019-06-20T02:06:45.620Z,0.00
2019-06-20T02:07:45.645Z,0.00
2019-06-20T02:08:45.599Z,0.00
2019-06-20T02:09:45.611Z,0.00
2019-06-20T02:10:45.578Z,0.00
2019-06-20T02:11:45.566Z,0.00
2019-06-20T02:12:45.555Z,0.00
2019-06-20T02:13:45.574Z,4.00
2019-06-20T02:14:45.533Z,4.00
2019-06-20T02:15:45.521Z,4.00
2019-06-20T02:16:45.607Z,4.00
2019-06-20T02:17:45.499Z,0.00
2019-06-20T02:18:45.525Z,4.00
2019-06-20T02:19:45.477Z,4.00
2019-06-20T02:20:45.467Z,4.00
2019-06-20T02:21:45.453Z,4.00
2019-06-20T02:22:45.443Z,4.00
2019-06-20T02:23:45.432Z,8.00
2019-06-20T02:24:45.457Z,4.00
2019-06-20T02:25:45.409Z,8.00
2019-06-20T02:26:45.413Z,8.00
2019-06-20T02:27:45.385Z,8.00
2019-06-20T02:28:45.388Z,12.00
2019-06-20T02:29:45.387Z,8.00
2019-06-20T02:30:45.407Z,12.00
2019-06-20T02:31:45.350Z,12.00
2019-06-20T02:32:45.340Z,12.00
2019-06-20T02:33:45.320Z,12.00
2019-06-20T02:34:45.321Z,20.00
2019-06-20T02:35:45.299Z,20.00
2019-06-20T02:36:45.338Z,20.00
2019-06-20T02:37:45.280Z,20.00
2019-06-20T02:38:45.264Z,24.00
2019-06-20T02:39:45.265Z,28.00
2019-06-20T02:40:45.243Z,28.00
2019-06-20T02:41:45.232Z,32.00
2019-06-20T02:42:45.260Z,32.00
2019-06-20T02:43:45.209Z,36.00
2019-06-20T02:44:45.200Z,40.00
2019-06-20T02:45:45.189Z,44.00
2019-06-20T02:46:45.177Z,48.00
2019-06-20T02:47:45.169Z,48.00
2019-06-20T02:48:45.178Z,52.00
2019-06-20T02:49:45.145Z,52.00
2019-06-20T02:50:45.135Z,56.00
2019-06-20T02:51:45.129Z,60.00
2019-06-20T02:52:45.112Z,64.00
2019-06-20T02:53:45.135Z,68.00
2019-06-20T02:54:45.092Z,72.00
2019-06-20T02:55:45.078Z,76.00
2019-06-20T02:56:45.067Z,80.00
2019-06-20T02:57:45.058Z,88.00
2019-06-20T02:58:45.049Z,88.00
2019-06-20T02:59:45.073Z,92.00
2019-06-20T03:00:45.033Z,100.00
2019-06-20T03:01:45.014Z,104.00
2019-06-20T03:02:45.006Z,108.00
2019-06-20T03:03:45.031Z,112.00
2019-06-20T03:04:45.773Z,120.00
2019-06-20T03:05:45.004Z,128.00
2019-06-20T03:06:44.960Z,132.00
2019-06-20T03:07:44.949Z,132.00
2019-06-20T03:08:44.983Z,144.00
2019-06-20T03:09:44.926Z,152.00
2019-06-20T03:10:44.917Z,160.00
2019-06-20T03:11:44.929Z,168.00
2019-06-20T03:12:44.900Z,180.00
2019-06-20T03:13:44.884Z,188.00
2019-06-20T03:14:45.948Z,192.00
2019-06-20T03:15:44.866Z,200.00
2019-06-20T03:16:44.888Z,208.00
2019-06-20T03:17:44.840Z,216.00
2019-06-20T03:18:44.832Z,220.00
2019-06-20T03:19:44.821Z,224.00
2019-06-20T03:20:44.811Z,228.00
2019-06-20T03:21:44.805Z,240.00
2019-06-20T03:22:44.825Z,248.00
2019-06-20T03:23:44.776Z,260.00
2019-06-20T03:24:44.774Z,268.00
2019-06-20T03:25:44.757Z,268.00
2019-06-20T03:26:44.744Z,276.00
2019-06-20T03:27:44.733Z,284.00
2019-06-20T03:28:44.749Z,292.00
2019-06-20T03:29:44.710Z,300.00
2019-06-20T03:30:44.706Z,312.00
2019-06-20T03:31:44.694Z,324.00
2019-06-20T03:32:44.680Z,324.00
2019-06-20T03:33:44.714Z,312.00
2019-06-20T03:34:44.658Z,296.00
2019-06-20T03:35:44.646Z,280.00
2019-06-20T03:36:44.634Z,272.00
2019-06-20T03:37:44.624Z,268.00
2019-06-20T03:38:44.613Z,268.00
2019-06-20T03:39:44.639Z,272.00
2019-06-20T03:40:44.591Z,280.00
2019-06-20T03:41:44.583Z,284.00
2019-06-20T03:42:44.570Z,292.00
2019-06-20T03:43:44.558Z,296.00
2019-06-20T03:44:58.244Z,304.00
2019-06-20T03:45:45.561Z,312.00
2019-06-20T03:46:44.530Z,316.00
2019-06-20T03:47:44.517Z,324.00
2019-06-20T03:48:44.505Z,328.00
2019-06-20T03:49:44.494Z,336.00
2019-06-20T03:50:44.517Z,348.00
2019-06-20T03:51:44.472Z,360.00
2019-06-20T03:52:44.463Z,368.00
2019-06-20T03:53:44.450Z,376.00
2019-06-20T03:54:44.447Z,392.00
2019-06-20T03:55:44.431Z,400.00
2019-06-20T03:56:44.452Z,416.00
2019-06-20T03:57:44.411Z,432.00
2019-06-20T03:58:44.398Z,440.00
2019-06-20T03:59:44.389Z,444.00
2019-06-20T04:00:44.374Z,444.00
2019-06-20T04:01:44.395Z,440.00
2019-06-20T04:02:44.392Z,436.00
2019-06-20T04:03:44.343Z,440.00
2019-06-20T04:04:44.332Z,448.00
2019-06-20T04:05:44.320Z,456.00
2019-06-20T04:06:44.333Z,464.00
2019-06-20T04:07:44.299Z,476.00
2019-06-20T04:08:44.433Z,488.00
2019-06-20T04:09:44.278Z,496.00
2019-06-20T04:10:44.269Z,508.00
2019-06-20T04:11:44.258Z,516.00
2019-06-20T04:12:44.247Z,524.00
2019-06-20T04:13:44.307Z,528.00
2019-06-20T04:14:44.225Z,532.00
2019-06-20T04:15:44.241Z,532.00
2019-06-20T04:16:44.224Z,532.00
2019-06-20T04:17:44.203Z,540.00
2019-06-20T04:18:44.184Z,548.00
2019-06-20T04:19:44.206Z,560.00
2019-06-20T04:20:44.162Z,568.00
2019-06-20T04:21:44.149Z,576.00
2019-06-20T04:22:44.139Z,580.00
2019-06-20T04:23:44.128Z,580.00
2019-06-20T04:24:44.117Z,576.00
2019-06-20T04:25:44.135Z,580.00
2019-06-20T04:26:44.095Z,584.00
2019-06-20T04:27:44.090Z,588.00
2019-06-20T04:28:44.074Z,596.00
2019-06-20T04:29:44.064Z,608.00
2019-06-20T04:30:44.093Z,620.00
2019-06-20T04:31:44.047Z,632.00
2019-06-20T04:32:44.033Z,648.00
2019-06-20T04:33:44.022Z,664.00
2019-06-20T04:34:44.012Z,680.00
2019-06-20T04:35:44.004Z,700.00
2019-06-20T04:36:44.031Z,720.00
2019-06-20T04:37:43.982Z,748.00
2019-06-20T04:38:43.969Z,776.00
2019-06-20T04:39:43.957Z,808.00
2019-06-20T04:40:43.948Z,840.00
2019-06-20T04:41:43.936Z,868.00
2019-06-20T04:42:43.954Z,904.00
2019-06-20T04:43:43.918Z,940.00
2019-06-20T04:44:43.906Z,972.00
2019-06-20T04:45:43.897Z,1008.00
2019-06-20T04:46:43.885Z,1048.00
2019-06-20T04:47:43.873Z,1096.00
2019-06-20T04:48:43.889Z,1140.00
2019-06-20T04:49:43.853Z,1196.00
2019-06-20T04:50:43.843Z,1236.00
2019-06-20T04:51:43.837Z,1272.00
2019-06-20T04:52:43.829Z,1312.00
2019-06-20T04:53:43.845Z,1352.00
2019-06-20T04:54:43.798Z,1336.00
2019-06-20T04:55:43.787Z,1352.00
2019-06-20T04:56:43.778Z,1380.00
2019-06-20T04:57:43.786Z,1408.00
2019-06-20T04:58:43.754Z,1432.00
2019-06-20T04:59:43.781Z,1460.00
2019-06-20T05:00:43.735Z,1496.00
2019-06-20T05:01:43.724Z,1540.00
2019-06-20T05:02:43.835Z,1660.00
2019-06-20T05:03:43.718Z,1700.00
2019-06-20T05:04:43.697Z,1744.00
2019-06-20T05:05:43.705Z,1784.00
2019-06-20T05:06:43.670Z,1808.00
2019-06-20T05:07:43.659Z,1812.00
2019-06-20T05:08:43.648Z,1784.00
2019-06-20T05:09:43.635Z,1740.00
2019-06-20T05:10:43.827Z,1692.00
2019-06-20T05:11:43.622Z,1648.00
2019-06-20T05:12:43.603Z,1604.00
2019-06-20T05:13:43.591Z,1528.00
2019-06-20T05:14:43.587Z,1524.00
2019-06-20T05:15:52.689Z,1500.00
2019-06-20T05:16:44.597Z,1464.00
2019-06-20T05:17:43.550Z,1436.00
2019-06-20T05:18:43.537Z,1452.00
2019-06-20T05:19:43.523Z,1476.00
2019-06-20T05:20:43.513Z,1484.00
2019-06-20T05:21:43.503Z,1484.00
2019-06-20T05:22:43.514Z,1492.00
2019-06-20T05:23:43.481Z,1548.00
2019-06-20T05:24:43.470Z,1584.00
2019-06-20T05:25:43.463Z,1608.00
2019-06-20T05:26:43.446Z,1648.00
2019-06-20T05:27:43.474Z,1696.00
2019-06-20T05:28:43.429Z,1696.00
2019-06-20T05:29:43.414Z,1704.00
2019-06-20T05:30:43.404Z,1736.00
2019-06-20T05:31:43.393Z,1716.00
2019-06-20T05:32:43.449Z,1672.00
2019-06-20T05:33:43.409Z,1636.00
2019-06-20T05:34:43.362Z,1456.00
2019-06-20T05:35:43.379Z,1296.00
2019-06-20T05:36:43.342Z,1188.00
2019-06-20T05:37:43.374Z,1060.00
2019-06-20T05:38:43.319Z,936.00
2019-06-20T05:39:43.332Z,872.00
2019-06-20T05:40:43.297Z,868.00
2019-06-20T05:41:43.286Z,880.00
2019-06-20T05:42:43.278Z,896.00
2019-06-20T05:43:43.339Z,912.00
2019-06-20T05:44:43.291Z,940.00
2019-06-20T05:45:46.201Z,976.00
2019-06-20T05:46:44.246Z,1012.00
2019-06-20T05:47:43.222Z,1052.00
2019-06-20T05:48:43.383Z,1112.00
2019-06-20T05:49:43.200Z,1184.00
2019-06-20T05:50:43.219Z,1264.00
2019-06-20T05:51:43.181Z,1340.00
2019-06-20T05:52:43.176Z,1412.00
2019-06-20T05:53:43.164Z,1468.00
2019-06-20T05:54:43.148Z,1524.00
2019-06-20T05:55:43.174Z,1572.00
2019-06-20T05:56:43.643Z,1604.00
2019-06-20T05:57:43.116Z,1616.00
2019-06-20T05:58:43.106Z,1592.00
2019-06-20T05:59:43.451Z,1528.00
2019-06-20T06:00:43.083Z,1448.00
2019-06-20T06:01:43.122Z,1364.00
2019-06-20T06:02:43.063Z,1260.00
2019-06-20T06:03:43.052Z,1152.00
2019-06-20T06:04:43.938Z,1036.00
2019-06-20T06:05:43.031Z,908.00
2019-06-20T06:06:43.020Z,796.00
2019-06-20T06:07:43.035Z,700.00
2019-06-20T06:08:42.997Z,636.00
2019-06-20T06:09:43.050Z,576.00
2019-06-20T06:10:42.995Z,536.00
2019-06-20T06:11:43.026Z,508.00
2019-06-20T06:12:43.018Z,476.00
2019-06-20T06:13:42.950Z,456.00
2019-06-20T06:14:42.946Z,440.00
2019-06-20T06:15:42.924Z,436.00
2019-06-20T06:16:44.250Z,440.00
2019-06-20T06:17:42.900Z,444.00
2019-06-20T06:18:42.927Z,468.00
2019-06-20T06:19:42.883Z,488.00
2019-06-20T06:20:44.947Z,524.00
2019-06-20T06:21:42.859Z,556.00
2019-06-20T06:22:44.799Z,564.00
2019-06-20T06:23:42.837Z,620.00
2019-06-20T06:24:42.851Z,744.00
2019-06-20T06:25:42.819Z,832.00
2019-06-20T06:26:42.807Z,720.00
2019-06-20T06:27:42.795Z,892.00
2019-06-20T06:28:42.788Z,884.00
2019-06-20T06:29:42.813Z,848.00
2019-06-20T06:30:42.778Z,856.00
2019-06-20T06:31:42.752Z,928.00
2019-06-20T06:32:42.743Z,1024.00
2019-06-20T06:33:42.732Z,1084.00
2019-06-20T06:34:42.721Z,1068.00
2019-06-20T06:35:42.744Z,996.00
2019-06-20T06:36:42.701Z,976.00
2019-06-20T06:37:42.685Z,1016.00
2019-06-20T06:38:42.673Z,1104.00
2019-06-20T06:39:43.588Z,1184.00
2019-06-20T06:40:42.652Z,1180.00
2019-06-20T06:41:42.682Z,1108.00
2019-06-20T06:42:42.631Z,1016.00
2019-06-20T06:43:42.621Z,964.00
2019-06-20T06:44:42.606Z,952.00
2019-06-20T06:45:42.598Z,940.00
2019-06-20T06:46:48.408Z,924.00
2019-06-20T06:47:43.598Z,916.00
2019-06-20T06:48:42.583Z,892.00
2019-06-20T06:49:42.556Z,856.00
2019-06-20T06:50:42.562Z,820.00
2019-06-20T06:51:42.536Z,780.00
2019-06-20T06:52:42.558Z,736.00
2019-06-20T06:53:42.510Z,688.00
2019-06-20T06:54:42.500Z,660.00
2019-06-20T06:55:42.494Z,648.00
2019-06-20T06:56:42.479Z,668.00
2019-06-20T06:57:42.469Z,696.00
2019-06-20T06:58:42.497Z,752.00
2019-06-20T06:59:42.449Z,836.00
2019-06-20T07:00:42.440Z,948.00
2019-06-20T07:01:42.427Z,1084.00
2019-06-20T07:02:42.418Z,1248.00
2019-06-20T07:03:42.404Z,1420.00
2019-06-20T07:04:42.419Z,1592.00
2019-06-20T07:05:42.390Z,1752.00
2019-06-20T07:06:42.375Z,1852.00
2019-06-20T07:07:42.362Z,1952.00
2019-06-20T07:08:42.364Z,2076.00
2019-06-20T07:09:42.377Z,2196.00
2019-06-20T07:10:42.328Z,2272.00
2019-06-20T07:11:42.318Z,2300.00
2019-06-20T07:12:42.309Z,2200.00
2019-06-20T07:13:42.311Z,2064.00
2019-06-20T07:14:42.954Z,1912.00
2019-06-20T07:15:42.311Z,1788.00
2019-06-20T07:16:42.265Z,1724.00
2019-06-20T07:17:42.253Z,1728.00
2019-06-20T07:18:42.247Z,1780.00
2019-06-20T07:19:42.232Z,1844.00
2019-06-20T07:20:42.222Z,1880.00
2019-06-20T07:21:42.249Z,1912.00
2019-06-20T07:22:42.198Z,2004.00
2019-06-20T07:23:42.188Z,2120.00
2019-06-20T07:24:42.177Z,2208.00
2019-06-20T07:25:42.166Z,2212.00
2019-06-20T07:26:42.193Z,2188.00
2019-06-20T07:27:42.145Z,2192.00
2019-06-20T07:28:42.135Z,2156.00
2019-06-20T07:29:42.124Z,1976.00
2019-06-20T07:30:42.112Z,1700.00
2019-06-20T07:31:42.106Z,1396.00
2019-06-20T07:32:42.193Z,1144.00
2019-06-20T07:33:42.079Z,992.00
2019-06-20T07:34:42.095Z,900.00
2019-06-20T07:35:42.121Z,828.00
2019-06-20T07:36:42.050Z,764.00
2019-06-20T07:37:42.047Z,724.00
2019-06-20T07:38:42.059Z,708.00
2019-06-20T07:39:42.029Z,728.00
2019-06-20T07:40:42.001Z,816.00
2019-06-20T07:41:41.989Z,992.00
2019-06-20T07:42:41.977Z,1232.00
2019-06-20T07:43:41.969Z,1464.00
2019-06-20T07:44:41.982Z,1628.00
2019-06-20T07:45:41.945Z,1716.00
2019-06-20T07:46:41.934Z,1700.00
2019-06-20T07:47:42.033Z,1620.00
2019-06-20T07:48:41.912Z,1536.00
2019-06-20T07:49:41.945Z,1488.00
2019-06-20T07:50:41.887Z,1460.00
2019-06-20T07:51:41.880Z,1440.00
2019-06-20T07:52:41.868Z,1424.00
2019-06-20T07:53:41.856Z,1416.00
2019-06-20T07:54:41.846Z,1432.00
2019-06-20T07:55:41.871Z,1456.00
2019-06-20T07:56:41.821Z,1492.00
2019-06-20T07:57:41.815Z,1528.00
2019-06-20T07:58:41.798Z,1532.00
2019-06-20T07:59:41.823Z,1524.00
2019-06-20T08:00:41.776Z,1524.00
2019-06-20T08:01:41.789Z,1532.00
2019-06-20T08:02:42.033Z,1592.00
2019-06-20T08:03:45.119Z,1688.00
2019-06-20T08:04:41.730Z,1800.00
2019-06-20T08:05:41.744Z,1904.00
2019-06-20T08:06:41.754Z,2000.00
2019-06-20T08:07:41.733Z,2084.00
2019-06-20T08:08:41.688Z,2168.00
2019-06-20T08:09:45.033Z,2256.00
2019-06-20T08:10:41.684Z,2340.00
2019-06-20T08:11:41.657Z,2388.00
2019-06-20T08:12:41.681Z,2472.00
2019-06-20T08:13:41.633Z,2612.00
2019-06-20T08:14:41.701Z,2776.00
2019-06-20T08:15:41.620Z,2840.00
2019-06-20T08:16:41.599Z,2812.00
2019-06-20T08:17:41.591Z,2764.00
2019-06-20T08:18:41.603Z,2660.00
2019-06-20T08:19:41.569Z,2528.00
2019-06-20T08:20:41.560Z,2480.00
2019-06-20T08:21:44.151Z,2508.00
2019-06-20T08:22:41.538Z,2576.00
2019-06-20T08:23:41.566Z,2656.00
2019-06-20T08:24:41.514Z,2704.00
2019-06-20T08:25:41.521Z,2736.00
2019-06-20T08:26:41.495Z,2804.00
2019-06-20T08:27:41.511Z,2828.00
2019-06-20T08:28:41.490Z,2816.00
2019-06-20T08:29:41.514Z,2820.00
2019-06-20T08:30:41.451Z,2840.00
2019-06-20T08:31:41.439Z,2888.00
2019-06-20T08:32:41.430Z,2996.00
2019-06-20T08:33:41.420Z,3132.00
2019-06-20T08:34:41.419Z,3256.00
2019-06-20T08:35:41.435Z,3764.00
2019-06-20T08:36:41.387Z,3192.00
2019-06-20T08:37:41.378Z,3028.00
2019-06-20T08:38:41.365Z,2852.00
2019-06-20T08:39:41.353Z,2672.00
2019-06-20T08:40:41.341Z,2492.00
2019-06-20T08:41:41.355Z,2372.00
2019-06-20T08:42:41.319Z,2424.00
2019-06-20T08:43:41.308Z,2872.00
2019-06-20T08:44:41.310Z,2892.00
2019-06-20T08:45:41.292Z,2988.00
2019-06-20T08:46:41.314Z,3064.00
2019-06-20T08:47:41.263Z,3016.00
2019-06-20T08:48:41.253Z,2880.00
2019-06-20T08:49:41.243Z,2760.00
2019-06-20T08:50:41.233Z,3580.00
2019-06-20T08:51:41.221Z,3648.00
2019-06-20T08:52:41.247Z,3788.00
2019-06-20T08:53:41.200Z,3844.00
2019-06-20T08:54:41.190Z,4228.00
2019-06-20T08:55:41.182Z,3900.00
2019-06-20T08:56:41.179Z,3056.00
2019-06-20T08:57:41.161Z,2960.00
2019-06-20T08:58:41.169Z,2116.00
2019-06-20T08:59:41.139Z,1684.00
2019-06-20T09:00:41.143Z,1484.00
2019-06-20T09:01:41.115Z,1376.00
2019-06-20T09:02:41.134Z,1324.00
2019-06-20T09:03:41.215Z,1316.00
2019-06-20T09:04:41.083Z,1328.00
2019-06-20T09:05:41.076Z,1348.00
2019-06-20T09:06:41.063Z,1396.00
2019-06-20T09:07:41.879Z,1452.00
2019-06-20T09:08:41.044Z,1532.00
2019-06-20T09:09:41.079Z,1692.00
2019-06-20T09:10:41.045Z,1972.00
2019-06-20T09:11:41.011Z,2336.00
2019-06-20T09:12:41.038Z,2616.00
2019-06-20T09:13:40.987Z,2596.00
2019-06-20T09:14:40.978Z,2276.00
2019-06-20T09:15:41.002Z,1868.00
2019-06-20T09:16:40.956Z,1616.00
2019-06-20T09:17:40.943Z,1600.00
2019-06-20T09:18:40.934Z,1792.00
2019-06-20T09:19:40.923Z,2092.00
2019-06-20T09:20:40.912Z,2464.00
2019-06-20T09:21:40.932Z,2796.00
2019-06-20T09:22:40.913Z,2960.00
2019-06-20T09:23:40.908Z,2932.00
2019-06-20T09:24:40.869Z,2760.00
2019-06-20T09:25:40.859Z,2624.00
2019-06-20T09:26:40.900Z,2608.00
2019-06-20T09:27:40.899Z,2668.00
2019-06-20T09:28:40.829Z,2764.00
2019-06-20T09:29:42.004Z,2868.00
2019-06-20T09:30:40.805Z,2944.00
2019-06-20T09:31:40.794Z,2936.00
2019-06-20T09:32:40.819Z,2892.00
2019-06-20T09:33:40.772Z,2944.00
2019-06-20T09:34:40.759Z,3156.00
2019-06-20T09:35:40.758Z,3468.00
2019-06-20T09:36:40.740Z,3736.00
2019-06-20T09:37:40.730Z,3808.00
2019-06-20T09:38:40.741Z,3920.00
2019-06-20T09:39:40.706Z,3864.00
2019-06-20T09:40:40.694Z,3580.00
2019-06-20T09:41:40.710Z,3588.00
2019-06-20T09:42:40.673Z,3464.00
2019-06-20T09:43:40.716Z,3532.00
2019-06-20T09:44:40.653Z,3648.00
2019-06-20T09:45:40.640Z,3788.00
2019-06-20T09:46:40.640Z,3804.00
2019-06-20T09:47:40.618Z,3760.00
2019-06-20T09:48:40.612Z,3668.00
2019-06-20T09:49:40.640Z,3652.00
2019-06-20T09:50:40.585Z,3604.00
2019-06-20T09:51:40.574Z,3564.00
2019-06-20T09:52:40.566Z,3628.00
2019-06-20T09:53:40.555Z,3832.00
2019-06-20T09:54:40.545Z,4104.00
2019-06-20T09:55:40.561Z,4364.00
2019-06-20T09:56:40.524Z,4528.00
2019-06-20T09:57:40.532Z,4532.00
2019-06-20T09:58:40.509Z,4516.00
2019-06-20T09:59:40.506Z,4340.00
2019-06-20T10:00:40.517Z,4264.00
2019-06-20T10:01:40.598Z,4284.00
2019-06-20T10:02:40.461Z,4304.00
2019-06-20T10:03:40.505Z,4400.00
2019-06-20T10:04:40.437Z,4516.00
2019-06-20T10:05:40.441Z,4552.00
2019-06-20T10:06:40.451Z,4532.00
2019-06-20T10:07:40.406Z,4392.00
2019-06-20T10:08:40.395Z,4196.00
2019-06-20T10:09:40.386Z,3976.00
2019-06-20T10:10:40.372Z,3564.00
2019-06-20T10:11:40.377Z,2948.00
2019-06-20T10:12:40.385Z,2464.00
2019-06-20T10:13:40.338Z,1832.00
2019-06-20T10:14:40.328Z,1924.00
2019-06-20T10:15:40.317Z,1596.00
2019-06-20T10:16:45.730Z,1956.00
2019-06-20T10:17:41.340Z,1916.00
2019-06-20T10:18:40.283Z,1924.00
2019-06-20T10:19:40.273Z,1940.00
2019-06-20T10:20:40.265Z,2012.00
2019-06-20T10:21:40.250Z,2160.00
2019-06-20T10:22:40.242Z,2320.00
2019-06-20T10:23:40.253Z,2256.00
2019-06-20T10:24:40.220Z,2280.00
2019-06-20T10:25:40.209Z,2328.00
2019-06-20T10:26:40.240Z,2224.00
2019-06-20T10:27:40.187Z,2164.00
2019-06-20T10:28:40.213Z,2132.00
2019-06-20T10:29:40.163Z,2204.00
2019-06-20T10:30:40.157Z,2392.00
2019-06-20T10:31:40.144Z,2632.00
2019-06-20T10:32:40.133Z,2936.00
2019-06-20T10:33:40.120Z,3700.00
2019-06-20T10:34:40.145Z,4204.00
2019-06-20T10:35:40.100Z,4876.00
2019-06-20T10:36:40.086Z,5116.00
2019-06-20T10:37:40.092Z,4920.00
2019-06-20T10:38:40.070Z,4524.00
2019-06-20T10:39:40.055Z,4448.00
2019-06-20T10:40:40.081Z,4512.00
2019-06-20T10:41:40.040Z,4700.00
2019-06-20T10:42:40.022Z,5008.00
2019-06-20T10:43:40.013Z,5304.00
2019-06-20T10:44:40.204Z,5464.00
2019-06-20T10:45:40.035Z,5476.00
2019-06-20T10:46:39.988Z,5516.00
2019-06-20T10:47:39.973Z,5460.00
2019-06-20T10:48:39.963Z,5224.00
2019-06-20T10:49:42.904Z,5132.00
2019-06-20T10:50:40.945Z,5072.00
2019-06-20T10:51:42.348Z,5084.00
2019-06-20T10:52:41.166Z,5096.00
2019-06-20T10:53:39.913Z,5044.00
2019-06-20T10:54:41.624Z,4776.00
2019-06-20T10:55:41.475Z,4352.00
2019-06-20T10:56:40.458Z,3836.00
2019-06-20T10:57:41.309Z,3316.00
2019-06-20T10:58:41.506Z,3188.00
2019-06-20T10:59:41.094Z,2940.00
2019-06-20T11:00:41.416Z,2984.00
2019-06-20T11:01:41.025Z,2896.00
2019-06-20T11:02:41.703Z,2916.00
2019-06-20T11:03:40.829Z,2952.00
2019-06-20T11:04:41.135Z,3024.00
2019-06-20T11:05:40.868Z,2960.00
2019-06-20T11:06:41.326Z,3172.00
2019-06-20T11:07:40.764Z,3484.00
2019-06-20T11:08:40.595Z,3364.00
2019-06-20T11:09:41.183Z,3616.00
2019-06-20T11:10:40.373Z,3860.00
2019-06-20T11:11:40.181Z,3808.00
2019-06-20T11:12:45.613Z,3880.00
2019-06-20T11:13:40.694Z,4180.00
2019-06-20T11:14:40.343Z,4316.00
2019-06-20T11:15:40.596Z,4280.00
2019-06-20T11:16:40.473Z,4388.00
2019-06-20T11:17:40.316Z,4312.00
2019-06-20T11:18:40.021Z,4408.00
2019-06-20T11:19:39.821Z,4404.00
2019-06-20T11:20:40.975Z,4444.00
2019-06-20T11:21:40.168Z,4644.00
2019-06-20T11:22:40.218Z,4848.00
2019-06-20T11:23:40.855Z,4932.00
2019-06-20T11:24:40.845Z,5312.00
2019-06-20T11:25:40.244Z,5536.00
2019-06-20T11:26:41.000Z,5420.00
2019-06-20T11:27:40.482Z,5704.00
2019-06-20T11:28:39.534Z,5556.00
2019-06-20T11:29:39.520Z,6148.00
2019-06-20T11:30:53.288Z,6256.00
2019-06-20T11:31:43.377Z,7376.00
2019-06-20T11:32:41.014Z,7700.00
2019-06-20T11:33:40.386Z,8080.00
2019-06-20T11:34:39.470Z,8392.00
2019-06-20T11:35:39.457Z,5308.00
2019-06-20T11:36:40.303Z,7584.00
2019-06-20T11:37:39.692Z,7240.00
2019-06-20T11:38:40.617Z,7772.00
2019-06-20T11:39:39.419Z,8416.00
2019-06-20T11:40:39.666Z,8212.00
2019-06-20T11:41:39.622Z,8520.00
2019-06-20T11:42:39.911Z,9044.00
2019-06-20T11:43:40.021Z,9480.00
2019-06-20T11:44:39.360Z,7692.00
2019-06-20T11:45:40.804Z,7640.00
2019-06-20T11:46:40.615Z,6796.00
2019-06-20T11:47:40.414Z,6340.00
2019-06-20T11:48:40.509Z,6892.00
2019-06-20T11:49:40.383Z,5696.00
2019-06-20T11:50:40.007Z,6364.00
2019-06-20T11:51:39.842Z,7648.00
2019-06-20T11:52:42.634Z,7696.00
2019-06-20T11:53:40.625Z,5704.00
2019-06-20T11:54:40.316Z,5244.00
2019-06-20T11:55:39.249Z,4712.00
2019-06-20T11:56:39.253Z,4548.00
2019-06-20T11:57:39.234Z,4284.00
2019-06-20T11:58:39.223Z,4352.00
2019-06-20T11:59:39.344Z,4572.00
2019-06-20T12:00:39.197Z,4524.00
2019-06-20T12:01:40.080Z,4304.00
2019-06-20T12:02:40.524Z,4332.00
2019-06-20T12:03:40.642Z,4028.00
2019-06-20T12:04:40.068Z,3964.00
2019-06-20T12:05:40.156Z,4080.00
2019-06-20T12:06:40.129Z,4268.00
2019-06-20T12:07:41.085Z,4588.00
2019-06-20T12:08:40.457Z,5096.00
2019-06-20T12:09:39.569Z,5612.00
2019-06-20T12:10:39.312Z,7024.00
2019-06-20T12:11:39.635Z,9740.00
2019-06-20T12:12:40.577Z,10768.00
2019-06-20T12:13:40.375Z,12072.00
2019-06-20T12:14:39.719Z,13664.00
2019-06-20T12:15:39.860Z,14528.00
2019-06-20T12:16:40.524Z,14560.00
2019-06-20T12:17:40.899Z,14912.00
2019-06-20T12:18:40.204Z,15040.00
2019-06-20T12:19:39.713Z,15328.00
2019-06-20T12:20:39.640Z,15200.00
2019-06-20T12:21:39.744Z,15264.00
2019-06-20T12:22:39.967Z,14912.00
2019-06-20T12:23:39.557Z,14880.00
2019-06-20T12:24:39.997Z,12788.00
2019-06-20T12:25:39.726Z,11396.00